Aérodrome :
LOGIN :

S'inscrire | Disclaimer

   EN    FR    IT 

 










Légende :    VFR   VFR Marginal   IFR   IFR Intensif   IFR Très Intensif
Visi : 
Plafond : 
>= 8 km
>= 3000ft
5 à 8 km
1000 à 3000 ft
1500m à 5 km
500 à 1000 ft
800 à 1500m
200 à 500 ft
< 800m
< 200 ft
Symboles :   Orages  Brouillard  Fortes neiges  Fortes précipitations  Vent > 20 kt
SIGMETs :   Divers  Orages  Givrage  Turbulence  Onde Orograph.  Cendres Volcan.






- Altitude de l'aérodrome : 1267 ft
- Code IATA : CUF


LIMZ - Cuneo Levaldigi

DERNIER METAR :
  • 101020Z AUTO 35003KT 290V030 9999 OVC048/// 10/04 Q1022

METARs EXPIRÉS :
  • 100950Z AUTO VRB02KT 9999 SCT053/// BKN074/// 10/05 Q1022
  • 100920Z AUTO 02003KT 310V070 9999 OVC079/// 10/05 Q1022
  • 100850Z AUTO VRB02KT 9999 BKN080/// 10/05 Q1022
  • 100820Z AUTO VRB01KT 9999 OVC081/// 09/05 Q1022

TAF TAF LIMZ
Valide du 10 à 06h jusqu'au 11 à 06h UTC


100500Z 1006/1106 VRB04KT 9999 SCT040
TEMPO 1016/1106 RA



MET'MAP, la Météo Aéronautique d'un coup d'oeil ! - Copyright ORBIFLY Décembre 2007 - Disclaimer

ORBIFLY MET'MAP TEAM :

Programmation & Développement : Alexandra Zaïnal
Sur une idée originale de : Baudouin d'Aumeries
Assistance à la programmation : Marc-Olivier Méhu
Soutien technique & logistique : Manuel Goepfert

Contact : metmap@orbifly.com




SOURCES & CREDITS :

   NOAA